Time;durP1;ratioP1;P1;durP2;ratioP2;P2;SDS_P1;SDS_P2;PMS_P1;PMS_P2;Temp;Humidity;BMP_temperature;BMP_pressure;BME280_temperature;BME280_humidity;BME280_pressure;Samples;Min_cycle;Max_cycle;Signal;HPM_P1;HPM_P2
2024/01/13 00:00:18;;;;;;;19.80;9.30;;;;;;;-10.12;72.84;99391.38;105658;1254;70502;-72
2024/01/13 00:03:40;;;;;;;17.80;8.40;;;;;;;-10.02;73.00;99385.26;102476;1296;601077;-72
2024/01/13 00:06:08;;;;;;;18.60;10.00;;;;;;;-10.07;73.30;99374.47;104695;1275;59210;-73
2024/01/13 00:08:35;;;;;;;21.30;10.10;;;;;;;-10.15;73.91;99367.34;104594;1274;59239;-72
2024/01/13 00:11:05;;;;;;;17.60;9.40;;;;;;;-10.18;74.38;99364.17;105110;1260;71016;-72
2024/01/13 00:13:33;;;;;;;18.90;9.30;;;;;;;-10.07;74.42;99368.63;105172;1264;70004;-73
2024/01/13 00:16:00;;;;;;;22.00;8.50;;;;;;;-9.97;74.22;99360.42;105427;1260;73902;-73
2024/01/13 00:18:28;;;;;;;16.90;8.20;;;;;;;-9.93;74.69;99349.69;105371;1258;152182;-73
2024/01/13 00:21:07;;;;;;;14.10;6.90;;;;;;;-9.88;75.30;99340.44;105375;1262;59787;-74
2024/01/13 00:23:36;;;;;;;16.10;7.70;;;;;;;-9.82;75.43;99331.85;105540;1257;70926;-74
2024/01/13 00:26:03;;;;;;;12.30;6.00;;;;;;;-9.78;75.80;99331.88;105520;1258;68269;-74
2024/01/13 00:28:31;;;;;;;16.50;6.50;;;;;;;-9.73;75.77;99323.84;105658;1262;72712;-72
2024/01/13 00:31:05;;;;;;;14.90;7.20;;;;;;;-9.70;75.92;99320.66;107128;1257;59619;-73
2024/01/13 00:33:34;;;;;;;12.80;6.10;;;;;;;-9.65;75.97;99312.10;107511;1260;59368;-71
2024/01/13 00:36:03;;;;;;;16.80;8.50;;;;;;;-9.61;75.97;99306.30;105884;1259;72154;-73
2024/01/13 00:38:30;;;;;;;15.20;7.80;;;;;;;-9.57;75.98;99297.40;105887;1259;70288;-74
2024/01/13 00:41:06;;;;;;;17.40;8.10;;;;;;;-9.58;76.33;99286.67;105744;1255;72691;-72
2024/01/13 00:43:36;;;;;;;13.30;7.30;;;;;;;-9.64;76.80;99285.69;105708;1261;60116;-73
2024/01/13 00:46:04;;;;;;;14.40;7.70;;;;;;;-9.72;77.04;99283.87;105613;1260;60015;-74
2024/01/13 00:48:31;;;;;;;13.30;6.30;;;;;;;-9.81;77.22;99269.27;105865;1257;72468;-72
2024/01/13 00:51:10;;;;;;;13.40;6.20;;;;;;;-9.80;77.23;99260.15;105778;1254;69012;-73
2024/01/13 00:53:39;;;;;;;13.00;6.20;;;;;;;-9.69;77.19;99252.91;105865;1254;72712;-73
2024/01/13 00:56:06;;;;;;;10.70;6.20;;;;;;;-9.60;77.40;99257.23;105662;1258;59833;-74
2024/01/13 00:58:36;;;;;;;12.70;6.00;;;;;;;-9.57;77.19;99247.52;105658;1257;59554;-72
2024/01/13 01:01:14;;;;;;;16.10;6.10;;;;;;;-9.52;77.15;99246.82;105657;1258;71844;-75
2024/01/13 01:03:45;;;;;;;13.80;6.30;;;;;;;-9.45;77.26;99249.88;105688;1257;70122;-74
2024/01/13 01:06:14;;;;;;;15.60;6.30;;;;;;;-9.41;77.23;99237.53;105755;1258;72713;-74
2024/01/13 01:08:42;;;;;;;12.70;6.60;;;;;;;-9.37;76.87;99228.11;105629;1260;60886;-74
2024/01/13 01:11:10;;;;;;;11.90;5.90;;;;;;;-9.31;77.12;99221.40;105528;1260;59683;-73
2024/01/13 01:13:39;;;;;;;10.00;5.60;;;;;;;-9.27;76.78;99216.79;105648;1259;72399;-73
2024/01/13 01:16:07;;;;;;;10.50;5.80;;;;;;;-9.26;76.31;99211.98;105502;1261;69288;-73
2024/01/13 01:18:34;;;;;;;10.00;5.40;;;;;;;-9.27;76.15;99206.50;105554;1257;70610;-75
2024/01/13 01:21:13;;;;;;;11.00;5.50;;;;;;;-9.23;76.27;99193.50;105749;1259;59698;-72
2024/01/13 01:23:43;;;;;;;14.60;5.70;;;;;;;-9.22;76.41;99191.06;105669;1260;59629;-73
2024/01/13 01:26:10;;;;;;;15.30;6.10;;;;;;;-9.23;76.28;99181.64;106156;1257;71838;-73
2024/01/13 01:28:38;;;;;;;10.30;5.00;;;;;;;-9.23;76.70;99174.96;107704;1256;69240;-73
2024/01/13 01:31:05;;;;;;;11.50;6.60;;;;;;;-9.20;77.12;99162.67;107675;1257;71391;-74
2024/01/13 01:33:36;;;;;;;15.30;6.80;;;;;;;-9.18;77.30;99160.01;106692;1257;59677;-73
2024/01/13 01:36:05;;;;;;;10.30;5.40;;;;;;;-9.18;77.43;99160.35;105537;1261;59516;-74
2024/01/13 01:38:33;;;;;;;12.50;5.70;;;;;;;-9.16;77.81;99140.05;105600;1257;71822;-71
2024/01/13 01:41:16;;;;;;;10.20;6.00;;;;;;;-9.14;77.98;99137.40;105555;1257;70156;-73
2024/01/13 01:43:45;;;;;;;12.60;5.90;;;;;;;-9.13;78.05;99134.77;105627;1258;71706;-72
2024/01/13 01:46:13;;;;;;;13.90;6.40;;;;;;;-9.13;78.39;99126.21;105847;1258;60839;-72
2024/01/13 01:48:41;;;;;;;12.10;6.60;;;;;;;-9.16;78.81;99131.96;105600;1260;59566;-72
2024/01/13 01:51:16;;;;;;;15.30;7.10;;;;;;;-9.16;79.45;99117.23;105606;1260;73078;-75
2024/01/13 01:53:45;;;;;;;12.90;6.40;;;;;;;-9.15;79.51;99115.46;105509;1263;70040;-73
2024/01/13 01:56:23;;;;;;;12.70;6.60;;;;;;;-9.12;79.25;99101.79;105498;1260;73094;-74
2024/01/13 01:58:52;;;;;;;11.70;6.20;;;;;;;-9.11;78.78;99097.81;105517;1257;59975;-73
2024/01/13 02:01:19;;;;;;;14.20;6.30;;;;;;;-9.13;78.51;99085.89;105560;1261;59547;-73
2024/01/13 02:03:47;;;;;;;12.40;6.00;;;;;;;-9.13;78.56;99090.66;105804;1258;72958;-74
2024/01/13 02:06:15;;;;;;;13.70;5.30;;;;;;;-9.12;78.41;99089.82;105566;1256;70494;-74
2024/01/13 02:08:43;;;;;;;9.10;5.70;;;;;;;-9.13;77.97;99088.98;105742;1259;71662;-75
2024/01/13 02:11:11;;;;;;;14.60;5.80;;;;;;;-9.12;78.88;99080.03;105425;1258;60969;-74
2024/01/13 02:13:45;;;;;;;15.30;6.10;;;;;;;-9.12;78.97;99079.52;105649;1260;60102;-73
2024/01/13 02:16:13;;;;;;;13.50;5.40;;;;;;;-9.12;79.24;99066.49;105390;1258;71803;-73
2024/01/13 02:18:41;;;;;;;16.20;6.70;;;;;;;-9.13;79.86;99071.47;105521;1260;70134;-74
2024/01/13 02:21:11;;;;;;;9.40;5.40;;;;;;;-9.11;79.57;99061.27;105257;1256;71479;-72
2024/01/13 02:23:40;;;;;;;12.70;6.00;;;;;;;-9.11;79.93;99055.45;105462;1254;61419;-74
2024/01/13 02:26:08;;;;;;;12.00;5.20;;;;;;;-9.11;80.24;99049.94;106219;1257;59661;-73
2024/01/13 02:28:36;;;;;;;14.00;6.60;;;;;;;-9.09;79.90;99046.98;107330;1258;71937;-73
2024/01/13 02:31:15;;;;;;;15.80;6.20;;;;;;;-9.10;79.83;99039.61;106455;1261;69040;-73
2024/01/13 02:33:49;;;;;;;14.70;6.50;;;;;;;-9.07;79.87;99033.66;105847;1258;71256;-72
2024/01/13 02:36:17;;;;;;;11.40;5.60;;;;;;;-9.06;79.58;99024.02;105717;1256;60842;-73
2024/01/13 02:38:44;;;;;;;12.10;6.10;;;;;;;-9.07;79.69;99024.73;105608;1259;59563;-71
2024/01/13 02:41:12;;;;;;;11.90;6.90;;;;;;;-9.08;79.51;99015.34;105327;1260;73148;-71
2024/01/13 02:43:40;;;;;;;11.80;6.90;;;;;;;-9.12;79.98;99000.26;105403;1261;70774;-73
2024/01/13 02:46:07;;;;;;;12.10;6.70;;;;;;;-9.12;80.21;98995.59;105340;1258;72738;-73
2024/01/13 02:48:38;;;;;;;12.30;6.10;;;;;;;-9.09;80.49;98990.35;107199;1255;59136;-73
2024/01/13 02:51:13;;;;;;;11.90;6.40;;;;;;;-9.05;80.42;98986.55;107802;1257;59522;-74
2024/01/13 02:53:42;;;;;;;11.60;6.40;;;;;;;-9.02;80.23;98989.35;105641;1257;73334;-74
2024/01/13 02:56:09;;;;;;;12.20;7.40;;;;;;;-9.00;79.86;98985.52;105865;1258;70295;-73
2024/01/13 02:58:36;;;;;;;13.60;6.50;;;;;;;-9.02;79.85;98983.19;105536;1256;71547;-73
2024/01/13 03:01:13;;;;;;;12.70;6.80;;;;;;;-9.02;80.34;98976.35;105488;1254;59658;-73
2024/01/13 03:03:44;;;;;;;14.00;6.70;;;;;;;-9.04;80.48;98975.70;105740;1256;60151;-75
2024/01/13 03:06:12;;;;;;;12.40;6.60;;;;;;;-9.05;80.42;98967.72;105543;1257;72145;-73
2024/01/13 03:08:39;;;;;;;15.40;7.60;;;;;;;-9.06;80.60;98974.08;105304;1261;70887;-72
2024/01/13 03:11:10;;;;;;;14.70;6.80;;;;;;;-9.05;80.59;98961.17;105672;1257;72636;-73
2024/01/13 03:13:37;;;;;;;12.30;6.80;;;;;;;-9.03;80.07;98968.48;105645;1257;61201;-73
2024/01/13 03:16:06;;;;;;;12.80;7.10;;;;;;;-9.00;80.39;98958.73;105764;1255;59571;-73
2024/01/13 03:18:34;;;;;;;15.60;6.80;;;;;;;-8.96;80.05;98954.80;105774;1254;73104;-73
2024/01/13 03:21:08;;;;;;;13.80;6.90;;;;;;;-8.94;79.80;98955.92;106107;1255;68866;-72
2024/01/13 03:23:36;;;;;;;14.50;5.80;;;;;;;-8.93;79.13;98949.38;106516;1258;72437;-73
2024/01/13 03:26:04;;;;;;;11.90;6.80;;;;;;;-8.94;79.69;98952.67;107707;1256;60464;-74
2024/01/13 03:28:31;;;;;;;10.90;5.60;;;;;;;-8.93;79.32;98945.58;108419;1254;59120;-74
2024/01/13 03:31:12;;;;;;;13.10;6.40;;;;;;;-8.91;79.30;98948.41;106466;1255;73081;-74
2024/01/13 03:33:44;;;;;;;13.40;7.10;;;;;;;-8.89;79.37;98942.30;105728;1255;69285;-74
2024/01/13 03:36:13;;;;;;;12.00;7.60;;;;;;;-8.87;79.70;98944.13;105660;1257;72732;-73
2024/01/13 03:38:41;;;;;;;10.50;6.10;;;;;;;-8.84;80.65;98940.91;105410;1257;61226;-75
2024/01/13 03:41:13;;;;;;;14.70;7.80;;;;;;;-8.80;80.99;98938.86;105709;1261;60149;-74
2024/01/13 03:43:42;;;;;;;10.70;5.90;;;;;;;-8.78;80.74;98933.11;105651;1255;71806;-73
2024/01/13 03:46:10;;;;;;;13.00;7.00;;;;;;;-8.77;80.94;98928.60;105359;1263;70554;-73
2024/01/13 03:48:38;;;;;;;12.60;6.80;;;;;;;-8.77;80.78;98920.69;105688;1258;72440;-72
2024/01/13 03:51:06;;;;;;;12.90;6.30;;;;;;;-8.77;80.86;98930.67;105628;1256;59777;-73
2024/01/13 03:53:34;;;;;;;15.20;6.50;;;;;;;-8.75;80.93;98924.40;105457;1260;60201;-72
2024/01/13 03:56:04;;;;;;;13.30;7.50;;;;;;;-8.74;80.71;98923.80;105559;1258;72035;-74
2024/01/13 03:58:33;;;;;;;10.60;5.50;;;;;;;-8.74;80.89;98919.88;105304;1260;68883;-73
2024/01/13 04:01:02;;;;;;;12.60;6.40;;;;;;;-8.71;80.59;98911.83;105134;1255;72931;-72
2024/01/13 04:03:30;;;;;;;12.90;7.20;;;;;;;-8.69;80.71;98913.14;105535;1257;59667;-74
2024/01/13 04:05:58;;;;;;;11.60;5.90;;;;;;;-8.64;80.48;98912.08;105868;1258;59668;-75
2024/01/13 04:08:26;;;;;;;12.80;6.40;;;;;;;-8.62;80.32;98907.69;105653;1260;73006;-73
2024/01/13 04:10:54;;;;;;;11.30;6.50;;;;;;;-8.61;79.88;98914.48;105327;1260;68874;-73
2024/01/13 04:13:21;;;;;;;13.50;7.10;;;;;;;-8.61;79.63;98900.57;105450;1257;72948;-72
2024/01/13 04:15:48;;;;;;;12.90;7.30;;;;;;;-8.60;79.74;98905.70;105716;1255;60530;-73
2024/01/13 04:18:16;;;;;;;13.70;7.00;;;;;;;-8.60;79.80;98900.71;105661;1255;61048;-72
2024/01/13 04:20:43;;;;;;;11.70;6.00;;;;;;;-8.56;80.01;98891.45;105675;1256;73070;-71
2024/01/13 04:23:11;;;;;;;12.50;6.70;;;;;;;-8.55;79.95;98893.29;106901;1256;69050;-73
2024/01/13 04:25:38;;;;;;;12.10;6.60;;;;;;;-8.53;79.88;98888.40;107323;1256;72864;-72
2024/01/13 04:28:06;;;;;;;12.30;7.10;;;;;;;-8.53;79.67;98892.85;106920;1255;60346;-74
2024/01/13 04:30:35;;;;;;;14.20;7.20;;;;;;;-8.63;79.58;98887.64;106308;1256;60492;-73
2024/01/13 04:33:03;;;;;;;15.50;8.00;;;;;;;-8.73;80.14;98881.91;106303;1255;73933;-73
2024/01/13 04:35:31;;;;;;;15.60;8.30;;;;;;;-8.83;80.37;98882.17;106129;1260;70427;-72
2024/01/13 04:37:59;;;;;;;17.70;7.70;;;;;;;-8.93;80.65;98874.52;105749;1257;71458;-73
2024/01/13 04:40:26;;;;;;;14.40;7.20;;;;;;;-8.87;80.84;98888.02;106339;1254;61702;-73
2024/01/13 04:42:54;;;;;;;12.90;6.60;;;;;;;-8.74;80.72;98881.60;106215;1256;60091;-73
2024/01/13 04:45:21;;;;;;;14.30;7.40;;;;;;;-8.64;80.74;98882.52;106305;1256;73899;-73
2024/01/13 04:47:49;;;;;;;12.40;6.70;;;;;;;-8.58;80.58;98885.85;105937;1258;70212;-73
2024/01/13 04:50:17;;;;;;;15.40;7.20;;;;;;;-8.54;80.41;98890.66;105628;1256;71422;-72
2024/01/13 04:52:45;;;;;;;16.50;7.40;;;;;;;-8.49;80.51;98880.64;105604;1257;60442;-72
2024/01/13 04:55:12;;;;;;;16.10;8.40;;;;;;;-8.44;80.34;98881.81;105344;1260;60381;-72
2024/01/13 04:57:39;;;;;;;14.00;6.60;;;;;;;-8.40;80.76;98881.77;105405;1260;73902;-73
2024/01/13 05:00:07;;;;;;;17.10;8.60;;;;;;;-8.41;80.61;98875.09;105402;1254;70660;-72
2024/01/13 05:02:35;;;;;;;15.50;7.30;;;;;;;-8.43;80.93;98877.29;105388;1260;71434;-72
2024/01/13 05:05:12;;;;;;;17.50;8.50;;;;;;;-8.46;80.69;98881.73;105762;1258;60374;-73
2024/01/13 05:07:42;;;;;;;16.50;8.30;;;;;;;-8.51;80.78;98878.86;105820;1256;60319;-72
2024/01/13 05:10:09;;;;;;;17.20;8.90;;;;;;;-8.57;80.66;98870.73;105410;1255;74104;-72
2024/01/13 05:12:36;;;;;;;16.00;9.20;;;;;;;-8.57;80.57;98870.52;105350;1255;70082;-73
2024/01/13 05:15:05;;;;;;;13.10;7.60;;;;;;;-8.46;80.28;98870.36;105691;1254;73990;-73
2024/01/13 05:17:32;;;;;;;15.10;8.40;;;;;;;-8.33;80.17;98872.34;105859;1254;60521;-74
2024/01/13 05:20:00;;;;;;;21.60;7.80;;;;;;;-8.23;80.32;98863.61;105153;1261;60441;-73
2024/01/13 05:22:27;;;;;;;14.20;7.60;;;;;;;-8.20;80.51;98864.14;106131;1258;74003;-72
2024/01/13 05:24:55;;;;;;;13.80;8.30;;;;;;;-8.23;80.25;98862.06;106857;1257;68979;-72
2024/01/13 05:27:22;;;;;;;15.60;8.10;;;;;;;-8.27;80.30;98859.34;106480;1255;71088;-72
2024/01/13 05:29:49;;;;;;;13.70;7.90;;;;;;;-8.31;80.18;98859.20;105224;1256;62220;-72
2024/01/13 05:32:17;;;;;;;13.40;6.20;;;;;;;-8.39;80.27;98859.73;105276;1260;60865;-73
2024/01/13 05:34:44;;;;;;;14.40;6.80;;;;;;;-8.42;80.11;98857.65;105717;1260;73962;-73
2024/01/13 05:37:11;;;;;;;12.90;7.30;;;;;;;-8.28;79.96;98855.11;105743;1256;69310;-73
2024/01/13 05:39:39;;;;;;;16.60;7.30;;;;;;;-8.18;79.71;98856.83;105573;1255;72720;-73
2024/01/13 05:42:08;;;;;;;16.50;7.90;;;;;;;-8.10;80.01;98856.98;105500;1256;60576;-72
2024/01/13 05:44:35;;;;;;;14.40;7.00;;;;;;;-8.11;80.04;98852.06;105712;1260;61027;-73
2024/01/13 05:47:04;;;;;;;16.20;7.30;;;;;;;-8.11;80.09;98851.39;105504;1261;73898;-73
2024/01/13 05:49:31;;;;;;;14.80;8.90;;;;;;;-8.13;80.22;98851.83;105704;1259;69988;-72
2024/01/13 05:51:59;;;;;;;16.90;7.80;;;;;;;-8.12;80.30;98855.19;105153;1260;71494;-72
2024/01/13 05:54:27;;;;;;;16.90;8.90;;;;;;;-8.14;80.04;98861.11;105519;1259;60429;-74
2024/01/13 05:56:54;;;;;;;22.00;9.20;;;;;;;-8.19;79.71;98867.37;105739;1259;60416;-73
2024/01/13 05:59:22;;;;;;;19.20;8.50;;;;;;;-8.14;79.88;98874.18;105581;1256;74409;-73
2024/01/13 06:01:49;;;;;;;14.20;6.90;;;;;;;-7.99;79.49;98872.80;105557;1261;69988;-72
2024/01/13 06:04:17;;;;;;;17.20;8.30;;;;;;;-7.91;79.02;98872.44;105838;1256;72514;-72
2024/01/13 06:06:44;;;;;;;16.30;8.40;;;;;;;-7.85;79.14;98865.08;105174;1260;60766;-72
2024/01/13 06:09:12;;;;;;;13.30;8.20;;;;;;;-7.85;79.05;98869.55;105071;1255;60672;-73
2024/01/13 06:11:42;;;;;;;13.20;7.40;;;;;;;-7.88;79.14;98872.97;105633;1256;72581;-73
2024/01/13 06:14:10;;;;;;;14.80;7.80;;;;;;;-7.90;78.94;98875.33;105770;1256;70798;-72
2024/01/13 06:16:37;;;;;;;20.10;8.50;;;;;;;-7.95;78.87;98880.19;105809;1257;71219;-73
2024/01/13 06:19:05;;;;;;;17.00;9.10;;;;;;;-8.03;78.87;98883.98;105762;1259;60422;-73
2024/01/13 06:21:43;;;;;;;14.00;7.00;;;;;;;-8.10;78.61;98889.15;106804;1258;61222;-72
2024/01/13 06:24:11;;;;;;;17.90;8.70;;;;;;;-8.08;78.41;98889.36;106928;1256;72634;-72
2024/01/13 06:26:40;;;;;;;18.20;7.90;;;;;;;-7.93;78.10;98887.33;106642;1260;70248;-72
2024/01/13 06:29:07;;;;;;;15.80;8.10;;;;;;;-7.80;78.01;98890.11;105894;1254;72494;-73
2024/01/13 06:31:35;;;;;;;14.50;8.30;;;;;;;-7.75;78.29;98889.52;105609;1255;60557;-73
2024/01/13 06:34:02;;;;;;;15.50;7.90;;;;;;;-7.71;78.50;98892.29;105725;1255;60315;-72
2024/01/13 06:36:30;;;;;;;14.20;8.20;;;;;;;-7.70;78.31;98891.72;105508;1256;71869;-73
2024/01/13 06:38:58;;;;;;;14.00;7.90;;;;;;;-7.69;78.62;98896.30;105637;1259;69044;-73
2024/01/13 06:41:25;;;;;;;16.60;8.20;;;;;;;-7.67;78.51;98893.79;105732;1257;71922;-75
2024/01/13 06:43:53;;;;;;;17.20;8.80;;;;;;;-7.66;78.28;98899.29;105566;1256;60668;-80
2024/01/13 06:46:21;;;;;;;13.80;8.10;;;;;;;-7.66;78.02;98899.80;106107;1258;60353;-79
2024/01/13 06:48:48;;;;;;;16.00;8.20;;;;;;;-7.67;78.01;98906.20;107879;1255;72576;-81
2024/01/13 06:51:16;;;;;;;14.80;7.70;;;;;;;-7.56;77.85;98909.44;109084;1255;68712;-79
2024/01/13 06:53:43;;;;;;;13.10;6.90;;;;;;;-7.38;77.39;98912.20;105809;1256;71539;-79
2024/01/13 06:56:11;;;;;;;12.10;7.00;;;;;;;-7.23;76.89;98909.70;105668;1255;60523;-80
2024/01/13 06:58:38;;;;;;;12.60;6.90;;;;;;;-7.18;76.88;98909.31;105774;1255;60352;-79
2024/01/13 07:01:05;;;;;;;14.50;7.30;;;;;;;-7.19;77.28;98908.98;105996;1255;73794;-79
2024/01/13 07:03:33;;;;;;;15.10;7.20;;;;;;;-7.16;77.69;98909.00;105942;1257;70844;-79
2024/01/13 07:06:01;;;;;;;13.20;7.80;;;;;;;-7.14;77.55;98913.19;105941;1255;72607;-78
2024/01/13 07:08:28;;;;;;;13.90;6.90;;;;;;;-7.14;77.47;98908.36;105822;1258;60961;-78
2024/01/13 07:10:56;;;;;;;13.20;7.20;;;;;;;-7.16;77.27;98908.13;106220;1256;60506;-78
2024/01/13 07:13:23;;;;;;;11.40;6.90;;;;;;;-7.17;77.32;98905.63;106364;1254;72961;-79
2024/01/13 07:15:51;;;;;;;11.90;7.90;;;;;;;-7.23;76.90;98902.45;106832;1259;67894;-77
2024/01/13 07:18:19;;;;;;;14.60;7.00;;;;;;;-7.31;76.69;98905.81;106001;1255;71405;-77
2024/01/13 07:20:47;;;;;;;12.10;6.70;;;;;;;-7.31;76.71;98905.77;107426;1255;61694;-78
2024/01/13 07:23:14;;;;;;;12.70;6.90;;;;;;;-7.17;76.53;98904.59;108944;1255;58970;-79
2024/01/13 07:25:49;;;;;;;13.20;7.10;;;;;;;-7.06;76.40;98903.15;107852;1258;72399;-78
2024/01/13 07:28:22;;;;;;;16.20;8.20;;;;;;;-7.02;76.51;98903.13;105987;1260;70468;-77
2024/01/13 07:30:50;;;;;;;14.10;8.20;;;;;;;-7.01;76.84;98904.65;105989;1256;75051;-78
2024/01/13 07:33:17;;;;;;;13.60;8.00;;;;;;;-6.99;77.01;98907.82;105910;1258;60909;-79
2024/01/13 07:35:45;;;;;;;15.30;8.70;;;;;;;-6.99;76.85;98913.30;106086;1261;60444;-80
2024/01/13 07:38:13;;;;;;;16.00;8.70;;;;;;;-6.98;77.08;98919.66;105957;1260;73992;-79
2024/01/13 07:40:41;;;;;;;20.40;10.20;;;;;;;-6.97;77.15;98919.61;106110;1256;68732;-79
2024/01/13 07:43:08;;;;;;;14.80;8.90;;;;;;;-6.94;77.20;98928.91;105854;1254;72457;-78
2024/01/13 07:45:37;;;;;;;19.10;9.90;;;;;;;-6.93;76.84;98931.08;105777;1255;60454;-77
2024/01/13 07:48:05;;;;;;;15.90;9.40;;;;;;;-6.91;76.93;98928.23;105595;1255;60366;-79
2024/01/13 07:50:32;;;;;;;17.20;9.40;;;;;;;-6.82;76.98;98932.08;105668;1256;72649;-78
2024/01/13 07:53:00;;;;;;;13.40;8.40;;;;;;;-6.72;76.80;98935.53;105793;1260;69090;-78
2024/01/13 07:55:28;;;;;;;17.10;9.20;;;;;;;-6.63;76.74;98940.42;106777;1255;71647;-80
2024/01/13 07:57:55;;;;;;;17.70;8.30;;;;;;;-6.44;75.92;98945.14;106129;1254;62020;-78
2024/01/13 08:00:23;;;;;;;15.70;8.30;;;;;;;-6.28;75.62;98948.58;105890;1256;60046;-79
2024/01/13 08:02:51;;;;;;;16.10;9.30;;;;;;;-6.20;75.31;98958.30;105845;1255;72888;-78
2024/01/13 08:05:18;;;;;;;17.40;9.10;;;;;;;-6.13;75.15;98968.30;105745;1255;69966;-79
2024/01/13 08:07:46;;;;;;;16.10;9.30;;;;;;;-6.02;75.49;98969.41;105731;1255;71472;-79
2024/01/13 08:10:13;;;;;;;16.60;9.30;;;;;;;-5.93;75.11;98975.48;105816;1260;60429;-77
2024/01/13 08:12:40;;;;;;;14.30;9.00;;;;;;;-5.83;75.03;98976.62;105480;1256;60556;-78
2024/01/13 08:15:09;;;;;;;13.40;7.70;;;;;;;-5.76;74.22;98981.45;105534;1260;76041;-77
2024/01/13 08:17:36;;;;;;;14.80;9.10;;;;;;;-5.75;73.55;98979.33;105511;1261;68152;-75
2024/01/13 08:20:05;;;;;;;12.40;8.40;;;;;;;-5.72;73.48;98984.52;106949;1255;71354;-78
2024/01/13 08:22:32;;;;;;;16.10;8.70;;;;;;;-5.64;73.34;98989.09;108128;1256;59069;-78
2024/01/13 08:25:00;;;;;;;16.70;9.20;;;;;;;-5.60;73.15;98991.61;107971;1255;60499;-78
2024/01/13 08:27:27;;;;;;;16.30;8.90;;;;;;;-5.54;72.94;98991.80;106641;1255;72592;-79
2024/01/13 08:29:55;;;;;;;17.70;9.10;;;;;;;-5.44;72.43;98996.42;106221;1255;68857;-80
2024/01/13 08:32:22;;;;;;;15.50;9.60;;;;;;;-5.31;72.00;99004.85;105967;1256;72933;-82
2024/01/13 08:34:50;;;;;;;16.00;9.90;;;;;;;-5.25;72.29;99002.79;106390;1261;60357;-78
2024/01/13 08:37:17;;;;;;;17.40;9.00;;;;;;;-5.21;71.80;99003.45;106396;1255;60496;-78
2024/01/13 08:39:45;;;;;;;15.30;9.50;;;;;;;-5.20;71.64;99006.48;106306;1256;73847;-79
2024/01/13 08:42:12;;;;;;;14.80;9.30;;;;;;;-5.15;71.64;99013.11;105612;1260;69508;-78
2024/01/13 08:44:40;;;;;;;19.10;10.00;;;;;;;-5.06;71.70;99013.13;105576;1255;71161;-79
2024/01/13 08:47:09;;;;;;;14.50;8.80;;;;;;;-4.97;71.50;99009.82;105786;1255;60517;-79
2024/01/13 08:49:37;;;;;;;17.70;9.30;;;;;;;-4.89;71.16;99012.66;105642;1261;60445;-77
2024/01/13 08:52:05;;;;;;;15.80;9.30;;;;;;;-4.87;70.52;99010.66;105568;1255;72809;-78
2024/01/13 08:54:35;;;;;;;17.70;10.00;;;;;;;-4.93;70.20;99014.94;105871;1256;68758;-78
2024/01/13 08:57:05;;;;;;;16.30;9.80;;;;;;;-4.91;70.62;99011.56;106014;1261;71075;-77
2024/01/13 08:59:34;;;;;;;16.00;9.00;;;;;;;-4.86;70.32;99006.59;105816;1260;60592;-78
2024/01/13 09:02:01;;;;;;;19.40;9.70;;;;;;;-4.70;70.18;99009.65;105681;1255;60934;-78
2024/01/13 09:04:30;;;;;;;16.70;10.20;;;;;;;-4.49;70.03;99012.92;105605;1258;73436;-79
2024/01/13 09:06:57;;;;;;;16.40;10.70;;;;;;;-4.39;70.00;99012.83;105713;1257;68789;-79
2024/01/13 09:09:28;;;;;;;14.90;9.10;;;;;;;-4.33;69.72;99017.49;105613;1261;71529;-79
2024/01/13 09:11:57;;;;;;;19.70;10.10;;;;;;;-4.34;69.38;99029.64;106066;1256;60683;-80
2024/01/13 09:14:24;;;;;;;17.80;11.70;;;;;;;-4.35;69.37;99034.40;106971;1259;61095;-81
2024/01/13 09:16:52;;;;;;;18.00;11.10;;;;;;;-4.38;69.19;99040.06;106833;1256;72900;-82
2024/01/13 09:19:19;;;;;;;17.80;10.70;;;;;;;-4.39;69.20;99041.16;108333;1255;68723;-81
2024/01/13 09:21:47;;;;;;;22.50;12.00;;;;;;;-4.39;69.22;99039.80;109095;1255;71845;-81
2024/01/13 09:24:18;;;;;;;20.40;12.50;;;;;;;-4.40;68.88;99035.20;107592;1258;60512;-81
2024/01/13 09:26:46;;;;;;;24.30;13.20;;;;;;;-4.45;68.64;99040.84;107056;1258;59325;-82
2024/01/13 09:29:17;;;;;;;20.50;12.80;;;;;;;-4.49;68.66;99043.52;107582;1255;72390;-81
2024/01/13 09:31:51;;;;;;;21.50;13.40;;;;;;;-4.51;68.78;99044.16;106702;1255;70372;-80
2024/01/13 09:34:20;;;;;;;21.70;11.90;;;;;;;-4.48;68.71;99053.34;106713;1255;71548;-80
2024/01/13 09:36:48;;;;;;;17.80;11.30;;;;;;;-4.36;68.65;99056.77;106650;1255;60717;-80
2024/01/13 09:39:20;;;;;;;21.10;13.20;;;;;;;-4.25;68.42;99061.79;106370;1256;60420;-81
2024/01/13 09:41:51;;;;;;;24.70;14.50;;;;;;;-4.23;68.64;99067.91;106318;1259;72558;-81
2024/01/13 09:44:22;;;;;;;24.00;13.30;;;;;;;-4.19;68.77;99070.64;105957;1258;69201;-79
2024/01/13 09:46:51;;;;;;;25.20;13.60;;;;;;;-4.18;68.58;99071.02;105830;1255;72700;-81
2024/01/13 09:49:20;;;;;;;20.60;13.30;;;;;;;-4.16;68.66;99073.86;106063;1254;60605;-80
2024/01/13 09:51:48;;;;;;;26.30;15.80;;;;;;;-4.14;68.42;99075.14;106274;1256;60341;-80
2024/01/13 09:54:24;;;;;;;26.60;15.00;;;;;;;-4.18;68.01;99076.95;106265;1256;74974;-73
2024/01/13 09:56:53;;;;;;;23.50;14.30;;;;;;;-4.27;67.65;99083.88;105733;1256;68869;-74
2024/01/13 09:59:22;;;;;;;23.10;14.10;;;;;;;-4.34;68.00;99085.67;105666;1255;72794;-74
2024/01/13 10:01:51;;;;;;;28.80;14.80;;;;;;;-4.37;67.95;99084.09;105772;1258;60518;-74
2024/01/13 10:04:19;;;;;;;24.20;14.90;;;;;;;-4.35;68.02;99087.44;105950;1256;60640;-74
2024/01/13 10:06:47;;;;;;;24.40;13.60;;;;;;;-4.30;68.04;99088.77;104939;1260;1002542;-73
2024/01/13 10:09:16;;;;;;;21.20;13.00;;;;;;;-4.26;67.89;99094.91;105627;1260;71175;-73
2024/01/13 10:12:06;;;;;;;23.30;14.10;;;;;;;-4.31;67.24;99091.23;105666;1257;73528;-74
2024/01/13 10:14:40;;;;;;;21.10;13.10;;;;;;;-4.44;67.42;99092.48;105932;1255;60439;-74
2024/01/13 10:17:11;;;;;;;25.80;13.90;;;;;;;-4.47;67.58;99099.93;107213;1254;60286;-73
2024/01/13 10:19:41;;;;;;;22.00;13.10;;;;;;;-4.38;67.79;99094.89;108225;1255;72821;-73
2024/01/13 10:22:11;;;;;;;19.40;13.70;;;;;;;-4.15;67.83;99097.36;107272;1259;69384;-76
2024/01/13 10:24:38;;;;;;;22.10;14.50;;;;;;;-3.97;67.97;99103.59;105807;1257;72665;-75
2024/01/13 10:27:08;;;;;;;23.10;14.40;;;;;;;-3.82;68.16;99098.66;105768;1258;60558;-75
2024/01/13 10:29:37;;;;;;;24.60;14.60;;;;;;;-3.67;68.01;99095.34;105521;1256;60557;-74
2024/01/13 10:32:08;;;;;;;26.80;15.40;;;;;;;-3.62;67.28;99098.68;105758;1258;74093;-74
2024/01/13 10:34:37;;;;;;;27.00;14.90;;;;;;;-3.60;67.17;99099.95;105831;1256;70313;-75
2024/01/13 10:37:09;;;;;;;24.90;14.80;;;;;;;-3.61;66.78;99098.98;105594;1256;74894;-75
2024/01/13 10:39:38;;;;;;;24.60;15.60;;;;;;;-3.67;66.34;99102.83;105841;1254;60557;-75
2024/01/13 10:42:09;;;;;;;27.50;15.80;;;;;;;-3.74;66.47;99099.40;105812;1255;61133;-73
2024/01/13 10:44:56;;;;;;;24.60;16.50;;;;;;;-3.81;66.29;99103.77;105861;1255;71551;-74
2024/01/13 10:47:29;;;;;;;27.10;17.10;;;;;;;-3.92;66.28;99109.83;105630;1255;70141;-74
2024/01/13 10:49:57;;;;;;;27.50;17.20;;;;;;;-3.99;66.42;99106.44;105674;1258;71735;-74
2024/01/13 10:52:33;;;;;;;26.60;15.70;;;;;;;-4.03;66.49;99109.06;105740;1260;60561;-73
2024/01/13 10:55:02;;;;;;;33.10;15.70;;;;;;;-4.06;66.56;99113.64;107243;1255;60450;-74
2024/01/13 10:57:29;;;;;;;26.20;16.20;;;;;;;-4.12;66.66;99118.30;105780;1256;73682;-76
2024/01/13 10:59:57;;;;;;;24.00;15.70;;;;;;;-4.18;66.77;99121.23;105763;1258;69342;-75
2024/01/13 11:02:25;;;;;;;28.00;16.50;;;;;;;-4.22;66.85;99117.84;105639;1254;71689;-74
2024/01/13 11:04:53;;;;;;;27.20;16.80;;;;;;;-4.26;67.05;99114.77;105568;1261;60525;-75
2024/01/13 11:07:21;;;;;;;31.70;16.90;;;;;;;-4.28;67.09;99101.95;105552;1255;60608;-74
2024/01/13 11:09:48;;;;;;;29.80;16.50;;;;;;;-4.35;66.89;99098.84;105472;1260;74530;-75
2024/01/13 11:12:20;;;;;;;27.70;15.00;;;;;;;-4.28;67.06;99103.15;105465;1256;68768;-75
2024/01/13 11:14:57;;;;;;;21.30;12.90;;;;;;;-4.26;67.33;99108.18;105790;1256;72629;-75
2024/01/13 11:17:26;;;;;;;21.90;13.70;;;;;;;-4.33;67.25;99118.98;107904;1255;59273;-73
2024/01/13 11:19:53;;;;;;;24.50;14.00;;;;;;;-4.36;67.27;99127.63;108920;1255;60337;-78
2024/01/13 11:22:39;;;;;;;22.30;14.10;;;;;;;-4.40;67.47;99130.29;106804;1255;72636;-78